Time;durP1;ratioP1;P1;durP2;ratioP2;P2;SDS_P1;SDS_P2;PMS_P1;PMS_P2;Temp;Humidity;BMP_temperature;BMP_pressure;BME280_temperature;BME280_humidity;BME280_pressure;Samples;Min_cycle;Max_cycle;Signal;HPM_P1;HPM_P2
2023/04/22 00:01:03;;;;;;;146.40;46.83;;;;;;;;;;5067447;28;20036;-63
2023/04/22 00:03:29;;;;;;;252.87;61.60;;;;;;;;;;5058061;28;20094;-62
2023/04/22 00:05:55;;;;;;;202.30;57.07;;;;;;;;;;5048191;28;20403;-63
2023/04/22 00:08:21;;;;;;;92.30;39.23;;;;;;;;;;5047138;28;20041;-62
2023/04/22 00:10:47;;;;;;;133.53;48.03;;;;;;;;;;5047723;28;20051;-63
2023/04/22 00:13:13;;;;;;;154.00;51.17;;;;;;;;;;5065895;28;20586;-63
2023/04/22 00:15:39;;;;;;;232.03;59.87;;;;;;;;;;5067615;28;20049;-63
2023/04/22 00:18:06;;;;;;;159.20;43.40;;;;;;;;;;5068256;28;20055;-62
2023/04/22 00:20:32;;;;;;;147.57;47.43;;;;;;;;;;5067089;28;20048;-63
2023/04/22 00:22:58;;;;;;;169.77;48.63;;;;;;;;;;5052881;28;20052;-62
2023/04/22 00:25:24;;;;;;;221.60;56.57;;;;;;;;;;5046614;28;20127;-63
2023/04/22 00:27:50;;;;;;;117.30;42.10;;;;;;;;;;5047613;28;20198;-62
2023/04/22 00:30:16;;;;;;;166.80;50.93;;;;;;;;;;5047483;28;20469;-62
2023/04/22 00:32:42;;;;;;;238.90;60.00;;;;;;;;;;5046991;28;20041;-62
2023/04/22 00:35:08;;;;;;;297.13;68.37;;;;;;;;;;5048078;28;20091;-62
2023/04/22 00:37:34;;;;;;;86.10;39.77;;;;;;;;;;5051848;28;20502;-62
2023/04/22 00:40:00;;;;;;;141.70;48.30;;;;;;;;;;5067756;28;20044;-62
2023/04/22 00:42:26;;;;;;;95.90;42.30;;;;;;;;;;5059266;28;20071;-62
2023/04/22 00:44:52;;;;;;;187.07;56.70;;;;;;;;;;5047563;28;20052;-62
2023/04/22 00:47:19;;;;;;;233.90;60.73;;;;;;;;;;5047938;28;20060;-62
2023/04/22 00:49:46;;;;;;;123.47;42.77;;;;;;;;;;5061859;28;20445;-62
2023/04/22 00:52:12;;;;;;;275.57;66.03;;;;;;;;;;5067170;28;20048;-62
2023/04/22 00:54:38;;;;;;;156.70;50.87;;;;;;;;;;5067520;28;20565;-62
2023/04/22 00:57:04;;;;;;;128.63;47.20;;;;;;;;;;5067404;28;20131;-62
2023/04/22 00:59:31;;;;;;;181.07;52.27;;;;;;;;;;5067600;28;20040;-62
2023/04/22 01:01:57;;;;;;;211.63;59.57;;;;;;;;;;5067888;28;20102;-63
2023/04/22 01:04:23;;;;;;;169.37;51.47;;;;;;;;;;5068892;28;20052;-62
2023/04/22 01:06:52;;;;;;;138.67;47.67;;;;;;;;;;5068961;28;20090;-62
2023/04/22 01:09:19;;;;;;;233.40;59.27;;;;;;;;;;5050923;28;20081;-62
2023/04/22 01:11:46;;;;;;;284.27;66.90;;;;;;;;;;5064887;28;20059;-62
2023/04/22 01:14:12;;;;;;;185.23;53.97;;;;;;;;;;5071245;28;20139;-63
2023/04/22 01:16:38;;;;;;;189.60;53.10;;;;;;;;;;5067780;28;20040;-62
2023/04/22 01:19:07;;;;;;;218.27;59.87;;;;;;;;;;5070910;28;20786;-63
2023/04/22 01:21:34;;;;;;;120.13;43.90;;;;;;;;;;5052491;28;20748;-63
2023/04/22 01:24:01;;;;;;;106.93;42.90;;;;;;;;;;5050536;28;20041;-62
2023/04/22 01:26:27;;;;;;;191.03;54.70;;;;;;;;;;5051087;28;20068;-62
2023/04/22 01:28:53;;;;;;;162.60;50.67;;;;;;;;;;5050774;28;20153;-62
2023/04/22 01:31:19;;;;;;;202.83;55.43;;;;;;;;;;5050858;28;20056;-62
2023/04/22 01:33:47;;;;;;;149.90;51.40;;;;;;;;;;5069244;28;20045;-62
2023/04/22 01:36:13;;;;;;;99.40;39.80;;;;;;;;;;5070535;28;20048;-62
2023/04/22 01:38:39;;;;;;;164.13;50.63;;;;;;;;;;5070021;28;20461;-62
2023/04/22 01:41:05;;;;;;;171.20;49.00;;;;;;;;;;5070541;28;20049;-62
2023/04/22 01:43:32;;;;;;;276.10;60.47;;;;;;;;;;5070649;28;20131;-62
2023/04/22 01:45:59;;;;;;;175.93;53.77;;;;;;;;;;5069807;28;20056;-62
2023/04/22 01:48:26;;;;;;;230.60;56.13;;;;;;;;;;5058859;28;20167;-62
2023/04/22 01:50:52;;;;;;;193.80;52.27;;;;;;;;;;5070185;28;20036;-62
2023/04/22 01:53:19;;;;;;;157.47;49.50;;;;;;;;;;5070103;28;20091;-62
2023/04/22 01:55:45;;;;;;;162.20;47.50;;;;;;;;;;5069786;28;20052;-62
2023/04/22 01:58:11;;;;;;;147.00;45.37;;;;;;;;;;5070177;28;20049;-64
2023/04/22 02:00:37;;;;;;;213.80;51.97;;;;;;;;;;5061823;28;20049;-62
2023/04/22 02:03:03;;;;;;;164.07;50.63;;;;;;;;;;5049916;28;20041;-62
2023/04/22 02:05:29;;;;;;;244.50;62.33;;;;;;;;;;5049858;28;20730;-62
2023/04/22 02:07:55;;;;;;;309.83;64.07;;;;;;;;;;5049915;28;20041;-62
2023/04/22 02:10:21;;;;;;;163.00;52.47;;;;;;;;;;5049955;28;20037;-62
2023/04/22 02:12:47;;;;;;;236.87;55.33;;;;;;;;;;5049801;28;20044;-62
2023/04/22 02:15:13;;;;;;;133.37;43.53;;;;;;;;;;5052537;28;20395;-62
2023/04/22 02:17:41;;;;;;;190.03;52.73;;;;;;;;;;5069232;28;20047;-62
2023/04/22 02:20:09;;;;;;;298.60;58.83;;;;;;;;;;5069746;28;20499;-62
2023/04/22 02:22:36;;;;;;;133.07;42.23;;;;;;;;;;5069343;28;20049;-62
2023/04/22 02:25:03;;;;;;;191.53;52.20;;;;;;;;;;5060939;28;20041;-62
2023/04/22 02:27:29;;;;;;;158.67;45.07;;;;;;;;;;5049505;28;20841;-62
2023/04/22 02:29:55;;;;;;;151.10;43.23;;;;;;;;;;5053169;28;20458;-62
2023/04/22 02:32:21;;;;;;;127.27;38.80;;;;;;;;;;5069475;28;20051;-62
2023/04/22 02:34:47;;;;;;;117.23;37.60;;;;;;;;;;5069240;28;20127;-62
2023/04/22 02:37:14;;;;;;;142.83;41.00;;;;;;;;;;5068947;28;20536;-62
2023/04/22 02:39:40;;;;;;;133.67;41.27;;;;;;;;;;5069334;28;20049;-62
2023/04/22 02:42:06;;;;;;;205.93;48.27;;;;;;;;;;5069261;28;20044;-62
2023/04/22 02:44:32;;;;;;;215.37;38.17;;;;;;;;;;5065790;28;20399;-62
2023/04/22 02:46:58;;;;;;;228.37;38.83;;;;;;;;;;5048856;28;20060;-62
2023/04/22 02:49:24;;;;;;;366.90;47.63;;;;;;;;;;5048845;28;20060;-62
2023/04/22 02:51:50;;;;;;;205.20;42.17;;;;;;;;;;5048617;28;20056;-62
2023/04/22 02:54:16;;;;;;;93.20;35.17;;;;;;;;;;5048844;28;20114;-62
2023/04/22 02:56:42;;;;;;;126.50;37.43;;;;;;;;;;5047565;28;20124;-62
2023/04/22 02:59:08;;;;;;;444.13;66.13;;;;;;;;;;5050750;28;20095;-62
2023/04/22 03:01:34;;;;;;;193.13;47.43;;;;;;;;;;5068480;28;20060;-62
2023/04/22 03:04:00;;;;;;;270.37;51.43;;;;;;;;;;5068750;28;20506;-62
2023/04/22 03:06:26;;;;;;;99.00;36.87;;;;;;;;;;5068610;28;20503;-63
2023/04/22 03:08:52;;;;;;;205.47;50.30;;;;;;;;;;5068429;28;20414;-62
2023/04/22 03:11:18;;;;;;;156.93;44.97;;;;;;;;;;5052210;28;20392;-63
2023/04/22 03:13:45;;;;;;;110.93;40.43;;;;;;;;;;5054440;28;20179;-62
2023/04/22 03:16:11;;;;;;;163.30;47.77;;;;;;;;;;5048404;28;20131;-62
2023/04/22 03:18:37;;;;;;;133.37;41.70;;;;;;;;;;5048563;28;20299;-62
2023/04/22 03:21:03;;;;;;;207.13;51.53;;;;;;;;;;5048782;28;20044;-62
2023/04/22 03:23:29;;;;;;;154.37;46.63;;;;;;;;;;5048572;28;20053;-63
2023/04/22 03:25:55;;;;;;;205.23;48.40;;;;;;;;;;5047997;28;20135;-62
2023/04/22 03:28:22;;;;;;;607.03;80.93;;;;;;;;;;5061658;28;20612;-62
2023/04/22 03:30:48;;;;;;;344.53;47.97;;;;;;;;;;5067812;28;20446;-62
2023/04/22 03:33:14;;;;;;;363.23;45.07;;;;;;;;;;5066685;28;20109;-62
2023/04/22 03:35:40;;;;;;;224.53;34.60;;;;;;;;;;5050082;28;20073;-62
2023/04/22 03:38:07;;;;;;;320.93;37.47;;;;;;;;;;5048298;28;20779;-62
2023/04/22 03:40:33;;;;;;;188.67;29.63;;;;;;;;;;5055786;28;20051;-63
2023/04/22 03:42:59;;;;;;;135.30;30.70;;;;;;;;;;5054457;28;20659;-62
2023/04/22 03:45:25;;;;;;;281.33;29.57;;;;;;;;;;5048238;28;20041;-62
2023/04/22 03:47:51;;;;;;;235.00;27.03;;;;;;;;;;5048016;28;20045;-62
2023/04/22 03:50:17;;;;;;;113.90;29.93;;;;;;;;;;5048190;28;20450;-62
2023/04/22 03:52:43;;;;;;;100.17;18.00;;;;;;;;;;5047887;28;20037;-62
2023/04/22 03:55:09;;;;;;;77.77;14.57;;;;;;;;;;5047751;28;20045;-62
2023/04/22 03:57:35;;;;;;;82.43;18.73;;;;;;;;;;5047926;28;20076;-62
2023/04/22 04:00:01;;;;;;;97.70;22.37;;;;;;;;;;5048016;28;20049;-62
2023/04/22 04:02:27;;;;;;;77.83;22.57;;;;;;;;;;5059202;28;20132;-62
2023/04/22 04:04:53;;;;;;;82.90;29.40;;;;;;;;;;5067666;28;20100;-62
2023/04/22 04:07:19;;;;;;;80.30;29.00;;;;;;;;;;5068259;28;20131;-62
2023/04/22 04:09:45;;;;;;;51.67;25.17;;;;;;;;;;5068001;28;20178;-62
2023/04/22 04:12:11;;;;;;;60.07;32.33;;;;;;;;;;5054987;28;20127;-63
2023/04/22 04:14:37;;;;;;;131.30;40.10;;;;;;;;;;5047800;28;20499;-62
2023/04/22 04:17:04;;;;;;;69.70;32.63;;;;;;;;;;5048166;28;20052;-62
2023/04/22 04:19:30;;;;;;;77.23;37.87;;;;;;;;;;5047915;28;20044;-62
2023/04/22 04:21:56;;;;;;;78.03;37.07;;;;;;;;;;5047254;28;20040;-62
2023/04/22 04:24:22;;;;;;;97.90;39.50;;;;;;;;;;5054261;28;20052;-62
2023/04/22 04:26:48;;;;;;;103.73;41.83;;;;;;;;;;5046892;28;20048;-62
2023/04/22 04:29:14;;;;;;;76.43;36.57;;;;;;;;;;5048111;28;20045;-62
2023/04/22 04:31:40;;;;;;;71.13;38.67;;;;;;;;;;5054602;28;20083;-62
2023/04/22 04:34:06;;;;;;;116.30;47.07;;;;;;;;;;5055986;28;20538;-62
2023/04/22 04:36:33;;;;;;;98.53;42.53;;;;;;;;;;5060298;28;20058;-62
2023/04/22 04:38:59;;;;;;;77.43;42.00;;;;;;;;;;5056113;28;20079;-62
2023/04/22 04:41:27;;;;;;;87.23;44.73;;;;;;;;;;5059811;28;20037;-62
2023/04/22 04:43:53;;;;;;;76.73;41.80;;;;;;;;;;5060437;28;20064;-62
2023/04/22 04:46:19;;;;;;;99.70;48.77;;;;;;;;;;5059751;28;20052;-62
2023/04/22 04:48:47;;;;;;;103.40;48.33;;;;;;;;;;5062367;28;20102;-62
2023/04/22 04:51:13;;;;;;;84.77;44.20;;;;;;;;;;5068993;28;20151;-62
2023/04/22 04:53:40;;;;;;;97.93;48.10;;;;;;;;;;5055725;28;20044;-62
2023/04/22 04:56:06;;;;;;;184.07;61.43;;;;;;;;;;5060783;28;20060;-62
2023/04/22 04:58:32;;;;;;;118.30;49.23;;;;;;;;;;5061153;28;20043;-62
2023/04/22 05:00:58;;;;;;;114.00;47.70;;;;;;;;;;5060382;28;20067;-62
2023/04/22 05:03:24;;;;;;;169.83;58.17;;;;;;;;;;5055592;28;20411;-62
2023/04/22 05:05:50;;;;;;;124.00;51.70;;;;;;;;;;5052699;28;20355;-63
2023/04/22 05:08:16;;;;;;;112.27;50.43;;;;;;;;;;5060156;28;20040;-62
2023/04/22 05:10:43;;;;;;;160.43;56.60;;;;;;;;;;5056425;28;20055;-62
2023/04/22 05:13:10;;;;;;;92.03;45.10;;;;;;;;;;5051100;28;20387;-61
2023/04/22 05:15:36;;;;;;;79.57;41.03;;;;;;;;;;5051286;28;20056;-62
2023/04/22 05:18:02;;;;;;;161.67;58.80;;;;;;;;;;5060152;28;20032;-62
2023/04/22 05:20:28;;;;;;;165.63;58.00;;;;;;;;;;5058943;28;20041;-61
2023/04/22 05:22:54;;;;;;;77.30;42.50;;;;;;;;;;5059531;28;20064;-61
2023/04/22 05:25:20;;;;;;;98.17;47.70;;;;;;;;;;5060640;28;20916;-62
2023/04/22 05:27:46;;;;;;;66.20;40.37;;;;;;;;;;5057497;28;20053;-61
2023/04/22 05:30:12;;;;;;;109.73;53.20;;;;;;;;;;5058696;28;20059;-62
2023/04/22 05:32:38;;;;;;;81.97;45.20;;;;;;;;;;5056843;28;20060;-63
2023/04/22 05:35:05;;;;;;;75.97;45.43;;;;;;;;;;5058317;28;20179;-63
2023/04/22 05:37:31;;;;;;;74.60;43.57;;;;;;;;;;5066497;28;20601;-63
2023/04/22 05:39:57;;;;;;;85.57;46.00;;;;;;;;;;5068058;28;20048;-62
2023/04/22 05:42:23;;;;;;;85.27;45.30;;;;;;;;;;5057624;28;20408;-63
2023/04/22 05:44:50;;;;;;;73.73;42.07;;;;;;;;;;5055523;28;20144;-63
2023/04/22 05:47:16;;;;;;;72.13;42.60;;;;;;;;;;5067421;28;20044;-63
2023/04/22 05:49:42;;;;;;;68.00;40.77;;;;;;;;;;5068039;28;20495;-64
2023/04/22 05:52:08;;;;;;;66.27;40.10;;;;;;;;;;5060375;28;20119;-63
2023/04/22 05:54:34;;;;;;;73.07;42.60;;;;;;;;;;5059748;28;20456;-64
2023/04/22 05:57:01;;;;;;;69.87;41.90;;;;;;;;;;5056462;28;20911;-62
2023/04/22 05:59:27;;;;;;;78.73;44.33;;;;;;;;;;5058934;28;20098;-63
2023/04/22 06:01:53;;;;;;;64.77;40.50;;;;;;;;;;5059935;28;20037;-64
2023/04/22 06:04:19;;;;;;;71.13;42.67;;;;;;;;;;5059494;28;20075;-62
2023/04/22 06:06:46;;;;;;;63.77;39.50;;;;;;;;;;5056372;28;20059;-63
2023/04/22 06:09:13;;;;;;;63.83;39.70;;;;;;;;;;5057517;28;20045;-62
2023/04/22 06:11:39;;;;;;;78.40;43.47;;;;;;;;;;5053394;28;20053;-62
2023/04/22 06:14:05;;;;;;;64.70;38.67;;;;;;;;;;5070043;28;20056;-63
2023/04/22 06:16:31;;;;;;;59.07;37.37;;;;;;;;;;5069925;28;20044;-63
2023/04/22 06:18:57;;;;;;;89.83;48.00;;;;;;;;;;5069120;28;20048;-63
2023/04/22 06:21:24;;;;;;;59.23;37.07;;;;;;;;;;5069848;28;20503;-63
2023/04/22 06:23:50;;;;;;;67.60;41.87;;;;;;;;;;5069176;28;20048;-63
2023/04/22 06:26:16;;;;;;;130.83;54.37;;;;;;;;;;5069686;28;20055;-63
2023/04/22 06:28:42;;;;;;;75.37;43.83;;;;;;;;;;5067741;28;20059;-63
2023/04/22 06:31:08;;;;;;;83.10;45.27;;;;;;;;;;5053678;28;20486;-63
2023/04/22 06:33:34;;;;;;;62.10;38.63;;;;;;;;;;5066206;28;20049;-63
2023/04/22 06:36:00;;;;;;;73.57;42.90;;;;;;;;;;5069482;28;20054;-63
2023/04/22 06:38:26;;;;;;;83.00;43.83;;;;;;;;;;5062914;28;20040;-63
2023/04/22 06:40:52;;;;;;;57.73;38.17;;;;;;;;;;5052451;28;20132;-63
2023/04/22 06:43:18;;;;;;;52.33;35.70;;;;;;;;;;5059292;28;20048;-63
2023/04/22 06:45:44;;;;;;;60.93;38.77;;;;;;;;;;5048629;28;20585;-63
2023/04/22 06:48:10;;;;;;;97.73;49.00;;;;;;;;;;5063031;28;20146;-62
2023/04/22 06:50:36;;;;;;;50.53;33.73;;;;;;;;;;5069501;28;20052;-63
2023/04/22 06:53:02;;;;;;;61.23;37.67;;;;;;;;;;5048957;28;20103;-62
2023/04/22 06:55:28;;;;;;;53.00;35.90;;;;;;;;;;5049691;28;20049;-63
2023/04/22 06:57:55;;;;;;;54.63;33.50;;;;;;;;;;5047748;28;20068;-63
2023/04/22 07:00:21;;;;;;;43.17;31.90;;;;;;;;;;5054010;28;20037;-63
2023/04/22 07:02:47;;;;;;;44.63;32.47;;;;;;;;;;5045093;28;20041;-62
2023/04/22 07:05:13;;;;;;;46.30;32.10;;;;;;;;;;5047901;28;20428;-63
2023/04/22 07:07:39;;;;;;;45.73;31.93;;;;;;;;;;5046640;28;20056;-63
2023/04/22 07:10:05;;;;;;;62.17;37.70;;;;;;;;;;5047199;28;20415;-63
2023/04/22 07:12:31;;;;;;;49.40;34.23;;;;;;;;;;5051009;28;20045;-63
2023/04/22 07:14:57;;;;;;;50.90;35.43;;;;;;;;;;5048552;28;20049;-62
2023/04/22 07:17:23;;;;;;;47.00;32.67;;;;;;;;;;5047368;28;20487;-62
2023/04/22 07:19:49;;;;;;;42.93;30.57;;;;;;;;;;5052506;28;20053;-63
2023/04/22 07:22:15;;;;;;;43.47;32.10;;;;;;;;;;5048775;28;20101;-63
2023/04/22 07:24:41;;;;;;;36.03;29.03;;;;;;;;;;5047709;28;20053;-63
2023/04/22 07:27:07;;;;;;;42.10;31.13;;;;;;;;;;5049063;28;20045;-63
2023/04/22 07:29:33;;;;;;;37.40;27.30;;;;;;;;;;5049976;28;20064;-64
2023/04/22 07:32:00;;;;;;;37.00;28.23;;;;;;;;;;5048228;28;20550;-63
2023/04/22 07:34:26;;;;;;;36.17;25.13;;;;;;;;;;5047912;28;20053;-63
2023/04/22 07:36:52;;;;;;;31.87;26.03;;;;;;;;;;5048381;28;20056;-63
2023/04/22 07:39:18;;;;;;;34.10;24.63;;;;;;;;;;5048024;28;20095;-63
2023/04/22 07:41:44;;;;;;;34.20;25.50;;;;;;;;;;5049286;28;20041;-63
2023/04/22 07:44:15;;;;;;;32.43;26.00;;;;;;;;;;5049036;28;20872;-63
2023/04/22 07:46:41;;;;;;;30.73;22.50;;;;;;;;;;5047955;28;20138;-63
2023/04/22 07:49:07;;;;;;;27.67;22.90;;;;;;;;;;5047619;28;20088;-63
2023/04/22 07:51:34;;;;;;;27.27;21.90;;;;;;;;;;5047904;28;20127;-63
2023/04/22 07:54:00;;;;;;;25.40;20.87;;;;;;;;;;5047966;28;20126;-63
2023/04/22 07:56:26;;;;;;;23.10;19.93;;;;;;;;;;5047390;28;20069;-63
2023/04/22 07:58:52;;;;;;;22.07;18.40;;;;;;;;;;5047596;28;20045;-63
2023/04/22 08:01:18;;;;;;;19.10;17.13;;;;;;;;;;5048179;28;20059;-63
2023/04/22 08:03:44;;;;;;;21.97;17.07;;;;;;;;;;5047830;28;20052;-63
2023/04/22 08:06:10;;;;;;;21.50;17.20;;;;;;;;;;5047276;28;20053;-64
2023/04/22 08:08:36;;;;;;;20.03;15.33;;;;;;;;;;5047707;28;20052;-63
2023/04/22 08:11:02;;;;;;;19.67;16.97;;;;;;;;;;5047778;28;20394;-63
2023/04/22 08:13:28;;;;;;;17.30;15.50;;;;;;;;;;5049226;28;20048;-63
2023/04/22 08:15:55;;;;;;;15.57;13.77;;;;;;;;;;5051389;28;20382;-63
2023/04/22 08:18:21;;;;;;;14.00;11.93;;;;;;;;;;5051735;28;20048;-63
2023/04/22 08:20:47;;;;;;;16.17;13.53;;;;;;;;;;5051483;28;20048;-63
2023/04/22 08:23:13;;;;;;;13.57;12.00;;;;;;;;;;5051624;28;20866;-63
2023/04/22 08:25:39;;;;;;;13.63;11.07;;;;;;;;;;5051119;28;20117;-63
2023/04/22 08:28:05;;;;;;;12.23;10.93;;;;;;;;;;5051409;28;20474;-63
2023/04/22 08:30:31;;;;;;;12.00;9.40;;;;;;;;;;5050231;28;20045;-63
2023/04/22 08:32:57;;;;;;;11.57;9.67;;;;;;;;;;5051464;28;20103;-62
2023/04/22 08:35:24;;;;;;;13.27;11.23;;;;;;;;;;5051415;28;20056;-62
2023/04/22 08:37:50;;;;;;;10.90;9.70;;;;;;;;;;5051147;28;20649;-62
2023/04/22 08:40:16;;;;;;;11.33;9.23;;;;;;;;;;5051372;28;20384;-62
2023/04/22 08:42:43;;;;;;;12.33;9.57;;;;;;;;;;5051165;28;20045;-62
2023/04/22 08:45:09;;;;;;;11.03;9.70;;;;;;;;;;5051149;28;20087;-62
2023/04/22 08:47:37;;;;;;;9.53;8.13;;;;;;;;;;5050908;28;20041;-62
2023/04/22 08:50:05;;;;;;;11.07;8.70;;;;;;;;;;5051497;28;20136;-62
2023/04/22 08:52:31;;;;;;;9.17;7.97;;;;;;;;;;5050910;28;20049;-62
2023/04/22 08:54:58;;;;;;;9.83;8.83;;;;;;;;;;5051053;28;20431;-62
2023/04/22 08:57:24;;;;;;;9.23;7.90;;;;;;;;;;5051048;28;20514;-61
2023/04/22 08:59:50;;;;;;;10.60;8.43;;;;;;;;;;5050167;28;20566;-61
2023/04/22 09:02:19;;;;;;;11.07;8.13;;;;;;;;;;5050777;28;20526;-61
2023/04/22 09:04:49;;;;;;;10.07;7.93;;;;;;;;;;5050829;28;20052;-61
2023/04/22 09:07:21;;;;;;;10.70;7.87;;;;;;;;;;5050751;28;20404;-61
2023/04/22 09:09:48;;;;;;;8.77;7.90;;;;;;;;;;5050802;28;20045;-61
2023/04/22 09:12:14;;;;;;;8.20;7.10;;;;;;;;;;5051085;28;20458;-61
2023/04/22 09:14:40;;;;;;;11.57;7.57;;;;;;;;;;5061165;28;20040;-61
2023/04/22 09:17:07;;;;;;;11.27;7.53;;;;;;;;;;5069685;28;20055;-61
2023/04/22 09:19:33;;;;;;;10.53;8.27;;;;;;;;;;5068681;28;20111;-61
2023/04/22 09:21:59;;;;;;;12.17;8.30;;;;;;;;;;5070385;28;20048;-61
2023/04/22 09:24:25;;;;;;;10.00;8.90;;;;;;;;;;5070109;28;20507;-60
2023/04/22 09:26:51;;;;;;;8.43;6.97;;;;;;;;;;5070073;28;20075;-61
2023/04/22 09:29:17;;;;;;;9.67;7.40;;;;;;;;;;5070466;28;20049;-60
2023/04/22 09:31:48;;;;;;;8.60;7.33;;;;;;;;;;5070242;28;20064;-60
2023/04/22 09:34:14;;;;;;;11.47;8.17;;;;;;;;;;5070357;28;20418;-60
2023/04/22 09:36:44;;;;;;;8.07;7.13;;;;;;;;;;5070167;28;20076;-60
2023/04/22 09:39:10;;;;;;;10.23;7.70;;;;;;;;;;5069778;28;20045;-60
2023/04/22 09:41:37;;;;;;;9.23;8.07;;;;;;;;;;5070206;28;20446;-60
2023/04/22 09:44:04;;;;;;;8.93;8.03;;;;;;;;;;5069949;28;20135;-59
2023/04/22 09:46:31;;;;;;;9.97;7.00;;;;;;;;;;5064221;28;20498;-59
2023/04/22 09:48:58;;;;;;;7.90;7.03;;;;;;;;;;5069918;28;20123;-60
2023/04/22 09:51:26;;;;;;;8.33;7.43;;;;;;;;;;5070265;28;20129;-61
2023/04/22 09:54:07;;;;;;;6.90;6.20;;;;;;;;;;5060926;28;20095;-60
2023/04/22 09:56:45;;;;;;;7.57;6.20;;;;;;;;;;5050401;28;20044;-59
2023/04/22 09:59:11;;;;;;;7.07;6.00;;;;;;;;;;5065429;28;20556;-60
2023/04/22 10:01:39;;;;;;;8.70;5.43;;;;;;;;;;5070582;28;20484;-60
2023/04/22 10:04:07;;;;;;;7.80;5.57;;;;;;;;;;5054438;28;20103;-60
2023/04/22 10:06:33;;;;;;;6.13;5.50;;;;;;;;;;5049715;28;20499;-60
2023/04/22 10:09:00;;;;;;;7.50;6.03;;;;;;;;;;5050003;28;20056;-60
2023/04/22 10:11:26;;;;;;;8.10;5.23;;;;;;;;;;5051565;28;20106;-61
2023/04/22 10:13:52;;;;;;;5.63;5.03;;;;;;;;;;5050587;28;20586;-60
2023/04/22 10:16:20;;;;;;;6.73;5.60;;;;;;;;;;5054600;28;20044;-60
2023/04/22 10:18:47;;;;;;;6.93;5.20;;;;;;;;;;5069839;28;20048;-60
2023/04/22 10:21:13;;;;;;;6.97;5.43;;;;;;;;;;5069600;28;20080;-60
2023/04/22 10:23:44;;;;;;;8.27;5.40;;;;;;;;;;5066118;28;20040;-59
2023/04/22 10:26:11;;;;;;;7.27;5.47;;;;;;;;;;5060833;28;20045;-59
2023/04/22 10:28:41;;;;;;;8.57;6.23;;;;;;;;;;5049480;28;20065;-59
2023/04/22 10:31:20;;;;;;;10.50;6.07;;;;;;;;;;5049595;28;20061;-59
2023/04/22 10:33:46;;;;;;;9.43;5.90;;;;;;;;;;5049332;28;20037;-59
2023/04/22 10:36:17;;;;;;;9.23;6.30;;;;;;;;;;5047146;28;20052;-61
2023/04/22 10:38:49;;;;;;;6.67;5.67;;;;;;;;;;5049549;28;20052;-60
2023/04/22 10:41:16;;;;;;;10.00;6.35;;;;;;;;;;5049248;28;20045;-61
2023/04/22 10:43:42;;;;;;;8.43;5.83;;;;;;;;;;5049089;28;20049;-61
2023/04/22 10:46:28;;;;;;;7.03;5.87;;;;;;;;;;5049251;28;20052;-60
2023/04/22 10:48:56;;;;;;;8.77;6.20;;;;;;;;;;5049256;28;20033;-61
2023/04/22 10:51:39;;;;;;;9.17;6.30;;;;;;;;;;5049252;28;20483;-61
2023/04/22 10:54:05;;;;;;;7.25;5.38;;;;;;;;;;5063204;28;20076;-61
2023/04/22 10:56:33;;;;;;;6.53;5.83;;;;;;;;;;5048999;28;20057;-61
2023/04/22 10:58:59;;;;;;;6.73;5.70;;;;;;;;;;5048706;28;20049;-61
2023/04/22 11:01:29;;;;;;;8.33;5.67;;;;;;;;;;5056307;28;20044;-61
2023/04/22 11:04:15;;;;;;;8.37;6.33;;;;;;;;;;5056313;28;20135;-62
2023/04/22 11:06:41;;;;;;;6.87;6.10;;;;;;;;;;5048994;28;20044;-61
2023/04/22 11:09:08;;;;;;;7.20;6.45;;;;;;;;;;5058287;28;20062;-61
2023/04/22 11:11:34;;;;;;;6.60;5.10;;;;;;;;;;5068576;28;20071;-63
2023/04/22 11:14:00;;;;;;;6.72;6.03;;;;;;;;;;5068737;28;20045;-61
2023/04/22 11:16:27;;;;;;;7.60;6.25;;;;;;;;;;5055314;28;20052;-62
2023/04/22 11:18:53;;;;;;;8.77;6.40;;;;;;;;;;5058078;28;20056;-62
2023/04/22 11:21:19;;;;;;;8.60;5.83;;;;;;;;;;5066149;28;20044;-62
2023/04/22 11:23:52;;;;;;;6.82;6.05;;;;;;;;;;5048566;28;20111;-62
2023/04/22 11:26:17;;;;;;;;;;;;;;;;;;5049171;28;20136;-62
2023/04/22 11:28:46;;;;;;;7.60;6.70;;;;;;;;;;5048287;28;20007;-61
2023/04/22 11:31:14;;;;;;;7.50;6.70;;;;;;;;;;5048406;28;20135;-62
2023/04/22 11:33:40;;;;;;;8.48;6.18;;;;;;;;;;5048560;28;20456;-62
2023/04/22 11:36:13;;;;;;;8.43;6.83;;;;;;;;;;5048399;28;20057;-62
2023/04/22 11:38:39;;;;;;;7.80;6.50;;;;;;;;;;5047972;28;20041;-61
2023/04/22 11:41:06;;;;;;;8.38;5.95;;;;;;;;;;5048557;28;20102;-62
2023/04/22 11:43:32;;;;;;;6.90;5.80;;;;;;;;;;5048238;28;20069;-62
2023/04/22 11:45:58;;;;;;;7.75;5.53;;;;;;;;;;5048012;28;20132;-62
2023/04/22 11:48:24;;;;;;;6.50;5.87;;;;;;;;;;5047421;28;20454;-62
2023/04/22 11:51:06;;;;;;;7.85;6.40;;;;;;;;;;5048122;28;20051;-62
2023/04/22 11:53:32;;;;;;;7.30;6.60;;;;;;;;;;5051989;28;20048;-62
2023/04/22 11:55:58;;;;;;;8.10;6.23;;;;;;;;;;5059214;28;20102;-62
2023/04/22 11:58:26;;;;;;;9.70;7.07;;;;;;;;;;5063029;28;20481;-61
2023/04/22 12:00:53;;;;;;;7.07;6.27;;;;;;;;;;5053424;28;20123;-62
2023/04/22 12:03:20;;;;;;;7.03;6.23;;;;;;;;;;5048060;28;20041;-62
2023/04/22 12:05:52;;;;;;;7.43;5.27;;;;;;;;;;5047309;28;20041;-62
2023/04/22 12:08:19;;;;;;;7.82;6.20;;;;;;;;;;5048022;28;20514;-62
2023/04/22 12:10:51;;;;;;;7.80;6.50;;;;;;;;;;5047717;28;20045;-62
2023/04/22 12:13:39;;;;;;;6.40;5.70;;;;;;;;;;5047871;28;20045;-62
2023/04/22 12:16:10;;;;;;;6.60;5.30;;;;;;;;;;5054542;28;20153;-62
2023/04/22 12:18:37;;;;;;;9.43;5.77;;;;;;;;;;5056375;28;20049;-62
2023/04/22 12:21:03;;;;;;;8.98;6.10;;;;;;;;;;5063650;28;20044;-62
2023/04/22 12:23:30;;;;;;;9.17;5.73;;;;;;;;;;5067972;28;20048;-62
2023/04/22 12:25:56;;;;;;;6.43;5.80;;;;;;;;;;5067431;28;20041;-62
2023/04/22 12:28:23;;;;;;;7.23;6.43;;;;;;;;;;5067492;28;20511;-62
2023/04/22 12:30:49;;;;;;;7.30;6.47;;;;;;;;;;5067140;28;20048;-62
2023/04/22 12:33:15;;;;;;;8.27;6.60;;;;;;;;;;5067648;28;20128;-62
2023/04/22 12:35:41;;;;;;;6.67;5.97;;;;;;;;;;5065748;28;20603;-62
2023/04/22 12:38:07;;;;;;;8.23;6.60;;;;;;;;;;5067416;28;20506;-62
2023/04/22 12:40:33;;;;;;;7.03;6.13;;;;;;;;;;5067812;28;20045;-62
2023/04/22 12:42:59;;;;;;;7.80;6.53;;;;;;;;;;5067402;28;20087;-62
2023/04/22 12:45:26;;;;;;;7.23;6.53;;;;;;;;;;5067031;28;20048;-62
2023/04/22 12:47:52;;;;;;;7.47;4.80;;;;;;;;;;5059601;28;20053;-63
2023/04/22 12:50:18;;;;;;;7.40;5.70;;;;;;;;;;5047586;28;20124;-62
2023/04/22 12:52:45;;;;;;;8.30;5.87;;;;;;;;;;5046955;28;20505;-62
2023/04/22 12:55:11;;;;;;;6.90;5.53;;;;;;;;;;5047636;28;20044;-62
2023/04/22 12:57:37;;;;;;;8.77;6.00;;;;;;;;;;5047580;28;20049;-62
2023/04/22 13:00:05;;;;;;;8.47;5.47;;;;;;;;;;5052222;28;20057;-63
2023/04/22 13:02:31;;;;;;;8.30;5.40;;;;;;;;;;5058011;28;20048;-62
2023/04/22 13:04:57;;;;;;;5.77;5.10;;;;;;;;;;5057462;28;20049;-62
2023/04/22 13:07:24;;;;;;;5.40;4.90;;;;;;;;;;5051150;28;20048;-62
2023/04/22 13:09:50;;;;;;;6.93;5.73;;;;;;;;;;5051971;28;20102;-62
2023/04/22 13:12:16;;;;;;;7.93;4.97;;;;;;;;;;5067981;28;20117;-62
2023/04/22 13:14:43;;;;;;;6.30;5.07;;;;;;;;;;5070689;28;20055;-62
2023/04/22 13:17:09;;;;;;;7.37;4.97;;;;;;;;;;5051984;28;20083;-62
2023/04/22 13:19:35;;;;;;;6.60;5.80;;;;;;;;;;5049483;28;20518;-62
2023/04/22 13:22:01;;;;;;;8.27;5.27;;;;;;;;;;5060009;28;20478;-61
2023/04/22 13:24:27;;;;;;;10.30;5.67;;;;;;;;;;5070755;28;20056;-61
2023/04/22 13:26:53;;;;;;;10.57;5.53;;;;;;;;;;5069220;28;20577;-61
2023/04/22 13:29:19;;;;;;;6.77;5.17;;;;;;;;;;5051175;28;20049;-61
2023/04/22 13:31:45;;;;;;;11.10;5.13;;;;;;;;;;5050547;28;20469;-60
2023/04/22 13:34:12;;;;;;;11.33;5.93;;;;;;;;;;5050727;28;20049;-60
2023/04/22 13:36:38;;;;;;;8.63;5.40;;;;;;;;;;5050116;28;20056;-60
2023/04/22 13:39:04;;;;;;;6.90;5.30;;;;;;;;;;5050279;28;20118;-61
2023/04/22 13:41:30;;;;;;;7.90;4.90;;;;;;;;;;5053344;28;20044;-60
2023/04/22 13:43:58;;;;;;;9.07;5.27;;;;;;;;;;5050371;28;20048;-60
2023/04/22 13:46:25;;;;;;;8.10;5.90;;;;;;;;;;5050209;28;20430;-60
2023/04/22 13:48:51;;;;;;;12.13;6.70;;;;;;;;;;5051427;28;20057;-59
2023/04/22 13:51:17;;;;;;;10.70;6.47;;;;;;;;;;5051707;28;20175;-59
2023/04/22 13:53:44;;;;;;;10.47;6.50;;;;;;;;;;5052407;28;20041;-59
2023/04/22 13:56:11;;;;;;;9.53;6.73;;;;;;;;;;5050238;28;20052;-59
2023/04/22 13:58:38;;;;;;;9.17;6.70;;;;;;;;;;5050010;28;20503;-60
2023/04/22 14:01:05;;;;;;;9.03;6.20;;;;;;;;;;5050185;28;20053;-59
2023/04/22 14:03:31;;;;;;;10.20;6.70;;;;;;;;;;5049537;28;20514;-59
2023/04/22 14:05:57;;;;;;;11.73;6.77;;;;;;;;;;5052534;28;20128;-60
2023/04/22 14:08:23;;;;;;;8.90;6.73;;;;;;;;;;5064294;28;20036;-59
2023/04/22 14:10:49;;;;;;;7.50;6.77;;;;;;;;;;5059658;28;20044;-60
2023/04/22 14:13:15;;;;;;;9.53;6.40;;;;;;;;;;5057947;28;20406;-61
2023/04/22 14:15:42;;;;;;;8.30;6.50;;;;;;;;;;5053365;28;20049;-60
2023/04/22 14:18:08;;;;;;;19.60;12.33;;;;;;;;;;5069937;28;20048;-61
2023/04/22 14:20:34;;;;;;;11.40;6.87;;;;;;;;;;5069590;28;20040;-60